Fargo, ND

2:15 AM CDT on July 26, 2016 (GMT -0500)
Hector International | | Change Station

Elev 899 ft 46.91 °N, 96.81 °W | Updated 22 minutes ago

Clear
Clear
72 °F
Feels Like 72 °F
N
7
Wind Variable Wind from South

Today
High -- | Low -- °F
--% Chance of Precip.
Yesterday
High -- | Low -- °F
Precip. -- in
Pressure 29.91 in
Visibility 10.0 miles
Clouds Clear
Dew Point 65 °F
Humidity 78%
Rainfall 0.00 in
Snow Depth Not available.
6:00 AM 9:06 PM
Waning Gibbous, 57% visible
METAR KFAR 260653Z 18006KT 10SM CLR 22/18 A2992 RMK AO2 SLP127 T02220183
Pressure 29.91 in
Visibility 10.0 miles
Clouds Clear
Dew Point 65 °F
Humidity 78%
Rainfall 0.00 in
Snow Depth Not available.
6:00 AM 9:06 PM
Waning Gibbous, 57% visible
METAR KFAR 260653Z 18006KT 10SM CLR 22/18 A2992 RMK AO2 SLP127 T02220183

10-Day Weather Forecast

Almanac

Astronomy

Jul. 26, 2016 Rise Set
Actual Time
Civil Twilight
Nautical Twilight
Astronomical Twilight
Moon
Length of Visible Light
Length of Day
Tomorrow will be .
, % of the Moon is Illuminated

Today's Extremes

State Highs State Lows

Community

WunderPhotos

Upload Photos

1,927,552 photos uploaded!

WunderBlog® & News

Nearby

Air Quality

  Air Quality AQ Index Pollutant
Not available.

Snow Depth

Station Depth Elevation

Earthquake Activity

City Distance Mag. Time & Date
Minimum magnitude displayed is 2.5.

Coastal Water Temperatures

Place Temperature

Stations

Nearby Weather Stations

Station Location Temp. Windchill Dew Point Humidity Wind Precip. Elev Updated Type
                   

Watches & Warnings

There are currently no watches in effect.